Minot, Maine
Current Conditions -  °F | °C
As of 5:35 PM on Sunday 25 Jan 2015 (Local Time) from KLEW Reporting Station
Clear Clear  
Wind Chill:   Ceiling: Unl
Heat Index: 18°   Visibility: 10mi
Dew Point:   Wind: 13mph
Humidity: 45%   Direction: 320°NW
Pressure: 29.77"   Gusts: NA
Location:  44.09°N, 70.32°W
Report Text: KLEW 252235Z AUTO 32011KT 10SM CLR M08/M18 A2977 RMK AO1
Loading
Personal Weather Stations






























Interactive Weather Map New forecast layout! Learn more

10-Day Weather Forecast

Advertisements
Track Severe Weather on mobile